createdAt,value
2019-03-26T00:01:39.810Z,5.10
2019-03-26T00:04:08.342Z,5.20
2019-03-26T00:06:37.836Z,5.20
2019-03-26T00:09:08.768Z,5.20
2019-03-26T00:11:37.880Z,5.20
2019-03-26T00:14:06.299Z,5.20
2019-03-26T00:16:34.802Z,5.20
2019-03-26T00:19:03.131Z,5.20
2019-03-26T00:21:31.351Z,5.10
2019-03-26T00:23:59.733Z,5.10
2019-03-26T00:26:28.129Z,5.10
2019-03-26T00:28:56.352Z,5.10
2019-03-26T00:31:24.759Z,5.10
2019-03-26T00:33:53.044Z,5.00
2019-03-26T00:36:21.431Z,5.00
2019-03-26T00:38:49.789Z,5.00
2019-03-26T00:41:18.342Z,5.00
2019-03-26T00:43:46.605Z,5.00
2019-03-26T00:46:14.815Z,5.00
2019-03-26T00:48:43.318Z,5.00
2019-03-26T00:51:11.586Z,5.00
2019-03-26T00:53:40.111Z,5.00
2019-03-26T00:56:08.518Z,5.00
2019-03-26T00:58:36.850Z,5.00
2019-03-26T01:01:05.202Z,5.00
2019-03-26T01:03:33.539Z,4.90
2019-03-26T01:06:01.740Z,5.00
2019-03-26T01:08:30.143Z,4.90
2019-03-26T01:10:58.402Z,4.90
2019-03-26T01:13:26.547Z,4.90
2019-03-26T01:15:54.801Z,4.90
2019-03-26T01:18:23.051Z,4.80
2019-03-26T01:20:51.373Z,4.80
2019-03-26T01:23:19.663Z,4.80
2019-03-26T01:25:47.971Z,4.80
2019-03-26T01:28:16.151Z,4.80
2019-03-26T01:30:44.491Z,4.80
2019-03-26T01:33:12.944Z,4.70
2019-03-26T01:35:41.272Z,4.70
2019-03-26T01:38:09.793Z,4.60
2019-03-26T01:40:38.142Z,4.60
2019-03-26T01:43:06.438Z,4.50
2019-03-26T01:45:34.772Z,4.50
2019-03-26T01:48:03.256Z,4.50
2019-03-26T01:50:31.385Z,4.40
2019-03-26T01:52:59.572Z,4.50
2019-03-26T01:55:27.879Z,4.40
2019-03-26T01:57:56.191Z,4.50
2019-03-26T02:00:24.694Z,4.50
2019-03-26T02:02:52.834Z,4.40
2019-03-26T02:05:21.136Z,4.50
2019-03-26T02:07:49.498Z,4.50
2019-03-26T02:10:17.740Z,4.50
2019-03-26T02:12:48.640Z,4.50
2019-03-26T02:15:33.020Z,4.50
2019-03-26T02:18:01.878Z,4.50
2019-03-26T02:20:30.603Z,4.50
2019-03-26T02:22:59.166Z,4.60
2019-03-26T02:25:28.437Z,4.60
2019-03-26T02:27:57.229Z,4.60
2019-03-26T02:30:25.645Z,4.60
2019-03-26T02:32:54.945Z,4.60
2019-03-26T02:35:23.418Z,4.60
2019-03-26T02:37:52.134Z,4.60
2019-03-26T02:40:20.569Z,4.60
2019-03-26T02:42:48.775Z,4.60
2019-03-26T02:45:17.067Z,4.60
2019-03-26T02:47:45.710Z,4.60
2019-03-26T02:50:14.144Z,4.60
2019-03-26T02:52:42.600Z,4.60
2019-03-26T02:55:11.004Z,4.60
2019-03-26T02:57:39.328Z,4.60
2019-03-26T03:00:08.918Z,4.60
2019-03-26T03:02:37.382Z,4.60
2019-03-26T03:05:05.865Z,4.50
2019-03-26T03:07:34.258Z,4.50
2019-03-26T03:10:02.794Z,4.50
2019-03-26T03:12:31.323Z,4.50
2019-03-26T03:14:59.925Z,4.50
2019-03-26T03:17:28.341Z,4.50
2019-03-26T03:19:56.767Z,4.50
2019-03-26T03:22:25.201Z,4.50
2019-03-26T03:24:53.493Z,4.50
2019-03-26T03:27:21.823Z,4.60
2019-03-26T03:29:50.348Z,4.50
2019-03-26T03:32:18.720Z,4.50
2019-03-26T03:34:46.991Z,4.40
2019-03-26T03:37:15.478Z,4.50
2019-03-26T03:39:43.932Z,4.50
2019-03-26T03:42:12.304Z,4.50
2019-03-26T03:44:40.719Z,4.50
2019-03-26T03:47:11.583Z,4.50
2019-03-26T03:49:40.479Z,4.60
2019-03-26T03:52:10.704Z,4.60
2019-03-26T03:54:40.879Z,4.60
2019-03-26T03:57:10.909Z,4.60
2019-03-26T03:59:40.479Z,4.60
2019-03-26T04:02:08.854Z,4.70
2019-03-26T04:04:37.349Z,4.70
2019-03-26T04:07:05.608Z,4.70
2019-03-26T04:09:33.816Z,4.70
2019-03-26T04:12:02.285Z,4.70
2019-03-26T04:14:30.798Z,4.70
2019-03-26T04:16:59.087Z,4.70
2019-03-26T04:19:27.360Z,4.70
2019-03-26T04:21:55.679Z,4.80
2019-03-26T04:24:24.024Z,4.80
2019-03-26T04:26:52.221Z,4.80
2019-03-26T04:29:20.576Z,4.70
2019-03-26T04:31:49.121Z,4.80
2019-03-26T04:34:17.376Z,4.80
2019-03-26T04:36:45.513Z,4.80
2019-03-26T04:39:13.859Z,4.80
2019-03-26T04:41:41.967Z,4.80
2019-03-26T04:44:10.263Z,4.90
2019-03-26T04:46:38.540Z,4.90
2019-03-26T04:49:06.940Z,4.80
2019-03-26T04:51:35.357Z,4.80
2019-03-26T04:54:03.674Z,4.80
2019-03-26T04:56:32.007Z,4.80
2019-03-26T04:59:00.303Z,4.80
2019-03-26T05:01:28.633Z,4.80
2019-03-26T05:03:56.921Z,4.80
2019-03-26T05:06:37.425Z,4.90
2019-03-26T05:08:55.578Z,4.90
2019-03-26T05:11:25.807Z,4.90
2019-03-26T05:13:53.871Z,4.90
2019-03-26T05:16:22.109Z,5.00
2019-03-26T05:18:50.566Z,5.00
2019-03-26T05:21:18.821Z,5.00
2019-03-26T05:23:47.060Z,5.10
2019-03-26T05:26:15.252Z,5.10
2019-03-26T05:28:43.526Z,5.10
2019-03-26T05:31:11.919Z,5.10
2019-03-26T05:33:40.066Z,5.10
2019-03-26T05:36:08.226Z,5.10
2019-03-26T05:38:36.427Z,5.20
2019-03-26T05:41:05.423Z,5.30
2019-03-26T05:43:33.877Z,5.40
2019-03-26T05:46:13.599Z,5.50
2019-03-26T05:48:43.919Z,5.60
2019-03-26T05:51:12.071Z,5.70
2019-03-26T05:53:40.253Z,5.70
2019-03-26T05:56:08.670Z,5.70
2019-03-26T05:58:36.898Z,5.80
2019-03-26T06:01:05.147Z,5.80
2019-03-26T06:03:33.301Z,5.80
2019-03-26T06:06:02.137Z,5.80
2019-03-26T06:08:30.407Z,5.90
2019-03-26T06:10:58.725Z,5.90
2019-03-26T06:13:26.989Z,5.90
2019-03-26T06:15:55.237Z,5.90
2019-03-26T06:18:23.613Z,5.90
2019-03-26T06:20:51.889Z,5.90
2019-03-26T06:23:20.250Z,5.90
2019-03-26T06:25:48.602Z,6.00
2019-03-26T06:28:16.889Z,6.00
2019-03-26T06:30:45.132Z,6.00
2019-03-26T06:33:13.542Z,6.10
2019-03-26T06:35:41.788Z,6.10
2019-03-26T06:38:10.267Z,6.10
2019-03-26T06:40:38.407Z,6.10
2019-03-26T06:43:06.796Z,6.10
2019-03-26T06:45:34.954Z,6.20
2019-03-26T06:48:04.510Z,6.30
2019-03-26T06:50:33.239Z,6.30
2019-03-26T06:53:01.554Z,6.30
2019-03-26T06:55:29.857Z,6.30
2019-03-26T06:57:58.911Z,6.40
2019-03-26T07:00:32.275Z,6.40
2019-03-26T07:03:19.648Z,6.40
2019-03-26T07:05:48.974Z,6.50
2019-03-26T07:08:17.471Z,6.50
2019-03-26T07:10:45.944Z,6.50
2019-03-26T07:13:14.459Z,6.60
2019-03-26T07:15:42.981Z,6.70
2019-03-26T07:18:12.060Z,6.90
2019-03-26T07:20:40.227Z,7.10
2019-03-26T07:23:09.691Z,7.20
2019-03-26T07:25:38.301Z,7.40
2019-03-26T07:28:06.756Z,7.50
2019-03-26T07:30:43.089Z,7.50
2019-03-26T07:33:11.576Z,7.70
2019-03-26T07:35:40.234Z,8.10
2019-03-26T07:38:08.715Z,9.00
2019-03-26T07:40:36.992Z,9.90
2019-03-26T07:43:05.712Z,10.60
2019-03-26T07:45:34.137Z,10.90
2019-03-26T07:48:02.507Z,10.90
2019-03-26T07:50:31.499Z,10.70
2019-03-26T07:53:00.021Z,10.50
2019-03-26T07:55:28.358Z,10.50
2019-03-26T07:57:57.379Z,10.90
2019-03-26T08:00:36.150Z,11.70
2019-03-26T08:03:05.238Z,11.90
2019-03-26T08:05:33.827Z,12.20
2019-03-26T08:08:04.797Z,12.80
2019-03-26T08:10:39.986Z,12.90
2019-03-26T08:13:09.779Z,12.40
2019-03-26T08:15:38.879Z,11.90
2019-03-26T08:18:07.558Z,11.60
2019-03-26T08:20:35.795Z,11.50
2019-03-26T08:23:04.385Z,11.10
2019-03-26T08:25:34.031Z,10.60
2019-03-26T08:28:05.073Z,10.10
2019-03-26T08:30:33.164Z,9.80
2019-03-26T08:33:01.407Z,9.60
2019-03-26T08:35:29.687Z,9.70
2019-03-26T08:38:11.401Z,10.10
2019-03-26T08:40:28.103Z,11.70
2019-03-26T08:42:56.524Z,14.30
2019-03-26T08:45:24.892Z,15.70
2019-03-26T08:47:53.174Z,17.40
2019-03-26T08:50:21.626Z,18.20
2019-03-26T08:52:49.813Z,18.90
2019-03-26T08:55:18.016Z,20.10
2019-03-26T08:57:47.096Z,21.00
2019-03-26T09:00:15.656Z,19.90
2019-03-26T09:02:44.108Z,18.50
2019-03-26T09:05:12.890Z,17.10
2019-03-26T09:07:41.344Z,15.70
2019-03-26T09:10:10.480Z,14.70
2019-03-26T09:12:39.601Z,16.00
2019-03-26T09:15:08.954Z,18.90
2019-03-26T09:17:37.648Z,21.20
2019-03-26T09:20:07.701Z,22.90
2019-03-26T09:22:36.456Z,23.20
2019-03-26T09:25:06.942Z,22.50
2019-03-26T09:27:35.360Z,20.90
2019-03-26T09:30:07.210Z,19.30
2019-03-26T09:32:35.638Z,18.00
2019-03-26T09:35:04.892Z,16.90
2019-03-26T09:37:33.384Z,15.80
2019-03-26T09:40:01.642Z,15.00
2019-03-26T09:42:30.925Z,14.30
2019-03-26T09:44:59.275Z,14.90
2019-03-26T09:47:27.538Z,17.10
2019-03-26T09:49:55.908Z,18.60
2019-03-26T09:52:24.646Z,19.00
2019-03-26T09:54:53.071Z,18.00
2019-03-26T09:57:21.316Z,16.80
2019-03-26T09:59:50.801Z,15.80
2019-03-26T10:02:19.381Z,15.00
2019-03-26T10:04:47.537Z,15.00
2019-03-26T10:07:21.346Z,16.20
2019-03-26T10:09:45.951Z,17.90
2019-03-26T10:12:14.212Z,18.60
2019-03-26T10:14:42.618Z,18.10
2019-03-26T10:17:10.763Z,17.20
2019-03-26T10:19:39.128Z,16.20
2019-03-26T10:22:07.779Z,16.10
2019-03-26T10:24:36.427Z,18.40
2019-03-26T10:27:04.767Z,21.80
2019-03-26T10:29:33.078Z,23.40
2019-03-26T10:32:01.314Z,25.60
2019-03-26T10:34:29.587Z,26.10
2019-03-26T10:36:57.875Z,24.40
2019-03-26T10:39:26.247Z,22.50
2019-03-26T10:41:54.385Z,21.50
2019-03-26T10:44:22.532Z,21.10
2019-03-26T10:46:50.740Z,20.70
2019-03-26T10:49:19.107Z,21.50
2019-03-26T10:51:47.701Z,22.90
2019-03-26T10:54:17.275Z,23.30
2019-03-26T10:56:45.551Z,22.70
2019-03-26T10:59:13.953Z,22.30
2019-03-26T11:01:42.502Z,22.20
2019-03-26T11:04:11.155Z,22.40
2019-03-26T11:06:39.609Z,23.20
2019-03-26T11:09:20.072Z,24.70
2019-03-26T11:11:38.283Z,25.90
2019-03-26T11:14:06.581Z,27.60
2019-03-26T11:16:35.726Z,26.80
2019-03-26T11:19:04.327Z,25.30
2019-03-26T11:21:32.609Z,23.00
2019-03-26T11:24:01.882Z,20.90
2019-03-26T11:26:30.277Z,18.90
2019-03-26T11:28:59.929Z,17.50
2019-03-26T11:31:30.148Z,17.20
2019-03-26T11:33:58.491Z,17.00
2019-03-26T11:36:31.438Z,17.20
2019-03-26T11:38:59.986Z,19.40
2019-03-26T11:41:28.328Z,22.00
2019-03-26T11:43:56.585Z,24.00
2019-03-26T11:46:25.090Z,26.10
2019-03-26T11:48:53.440Z,26.20
2019-03-26T11:51:21.984Z,27.40
2019-03-26T11:53:50.499Z,28.60
2019-03-26T11:56:19.416Z,29.40
2019-03-26T11:58:48.013Z,30.50
2019-03-26T12:01:16.256Z,31.50
2019-03-26T12:03:45.217Z,32.40
2019-03-26T12:06:16.263Z,33.60
2019-03-26T12:08:44.901Z,34.70
2019-03-26T12:11:13.390Z,35.40
2019-03-26T12:13:41.542Z,34.70
2019-03-26T12:16:09.820Z,32.40
2019-03-26T12:18:38.178Z,29.80
2019-03-26T12:21:06.540Z,27.00
2019-03-26T12:23:35.000Z,26.20
2019-03-26T12:26:03.481Z,27.90
2019-03-26T12:28:31.791Z,29.50
2019-03-26T12:31:00.735Z,29.40
2019-03-26T12:33:29.106Z,27.50
2019-03-26T12:35:57.362Z,25.30
2019-03-26T12:38:25.644Z,24.00
2019-03-26T12:40:54.908Z,22.80
2019-03-26T12:43:23.588Z,22.20
2019-03-26T12:45:53.634Z,20.80
2019-03-26T12:48:21.831Z,19.60
2019-03-26T12:50:53.974Z,18.60
2019-03-26T12:53:23.409Z,18.30
2019-03-26T12:55:52.075Z,20.40
2019-03-26T12:58:30.950Z,23.50
2019-03-26T13:00:51.483Z,25.40
2019-03-26T13:03:20.191Z,27.40
2019-03-26T13:06:17.726Z,27.70
2019-03-26T13:08:46.329Z,26.00
2019-03-26T13:11:41.839Z,23.60
2019-03-26T13:14:11.387Z,23.10
2019-03-26T13:16:40.505Z,25.30
2019-03-26T13:19:09.455Z,25.90
2019-03-26T13:21:37.888Z,25.70
2019-03-26T13:24:11.470Z,24.50
2019-03-26T13:26:41.013Z,22.80
2019-03-26T13:29:10.421Z,20.90
2019-03-26T13:31:39.482Z,19.50
2019-03-26T13:34:09.538Z,19.30
2019-03-26T13:36:39.453Z,18.70
2019-03-26T13:39:09.641Z,18.00
2019-03-26T13:41:38.869Z,17.40
2019-03-26T13:44:07.826Z,17.40
2019-03-26T13:46:36.392Z,17.20
2019-03-26T13:49:05.251Z,16.80
2019-03-26T13:51:37.147Z,16.40
2019-03-26T13:54:06.420Z,15.90
2019-03-26T13:56:35.420Z,15.60
2019-03-26T13:59:05.589Z,15.30
2019-03-26T14:01:35.301Z,14.90
2019-03-26T14:04:03.965Z,14.30
2019-03-26T14:06:32.667Z,14.00
2019-03-26T14:09:00.987Z,13.80
2019-03-26T14:11:31.452Z,13.70
2019-03-26T14:14:00.277Z,13.70
2019-03-26T14:16:28.535Z,14.10
2019-03-26T14:18:57.059Z,14.90
2019-03-26T14:21:25.609Z,16.40
2019-03-26T14:23:54.295Z,17.90
2019-03-26T14:26:22.457Z,18.40
2019-03-26T14:28:51.063Z,17.90
2019-03-26T14:31:19.458Z,17.60
2019-03-26T14:33:47.669Z,17.10
2019-03-26T14:36:16.201Z,16.70
2019-03-26T14:38:45.480Z,16.20
2019-03-26T14:41:14.477Z,15.90
2019-03-26T14:43:42.895Z,16.00
2019-03-26T14:46:11.186Z,15.70
2019-03-26T14:48:42.009Z,15.10
2019-03-26T14:51:11.686Z,14.50
2019-03-26T14:53:40.174Z,14.00
2019-03-26T14:56:09.963Z,13.60
2019-03-26T14:58:38.277Z,13.30
2019-03-26T15:01:06.813Z,12.90
2019-03-26T15:03:36.587Z,12.80
2019-03-26T15:06:07.720Z,12.60
2019-03-26T15:08:36.682Z,12.60
2019-03-26T15:11:08.616Z,12.50
2019-03-26T15:13:37.928Z,12.40
2019-03-26T15:16:08.169Z,12.40
2019-03-26T15:18:36.665Z,12.40
2019-03-26T15:21:05.708Z,12.30
2019-03-26T15:23:35.956Z,12.40
2019-03-26T15:26:04.303Z,12.10
2019-03-26T15:28:32.738Z,12.00
2019-03-26T15:31:01.631Z,11.70
2019-03-26T15:33:29.916Z,11.70
2019-03-26T15:35:58.520Z,11.40
2019-03-26T15:38:27.343Z,11.20
2019-03-26T15:40:55.628Z,11.00
2019-03-26T15:43:23.983Z,10.90
2019-03-26T15:45:52.437Z,10.60
2019-03-26T15:48:21.944Z,10.50
2019-03-26T15:50:50.684Z,10.50
2019-03-26T15:53:20.071Z,10.60
2019-03-26T15:55:48.595Z,10.60
2019-03-26T15:58:16.885Z,10.30
2019-03-26T16:00:45.750Z,10.10
2019-03-26T16:03:15.017Z,9.90
2019-03-26T16:05:43.405Z,9.60
2019-03-26T16:08:11.984Z,9.40
2019-03-26T16:10:40.365Z,9.20
2019-03-26T16:13:08.670Z,9.00
2019-03-26T16:15:44.316Z,8.80
2019-03-26T16:18:08.354Z,8.80
2019-03-26T16:20:37.699Z,8.70
2019-03-26T16:23:06.006Z,8.70
2019-03-26T16:25:35.974Z,8.70
2019-03-26T16:28:06.743Z,8.60
2019-03-26T16:30:36.857Z,8.40
2019-03-26T16:33:10.459Z,8.20
2019-03-26T16:35:41.530Z,8.00
2019-03-26T16:38:10.031Z,7.80
2019-03-26T16:40:38.402Z,7.70
2019-03-26T16:43:08.229Z,7.60
2019-03-26T16:45:37.207Z,7.50
2019-03-26T16:48:05.695Z,7.40
2019-03-26T16:50:35.253Z,7.30
2019-03-26T16:53:11.145Z,7.40
2019-03-26T16:55:39.428Z,7.40
2019-03-26T16:58:07.978Z,7.40
2019-03-26T17:01:26.721Z,7.30
2019-03-26T17:03:55.149Z,7.30
2019-03-26T17:06:24.452Z,7.20
2019-03-26T17:08:53.659Z,7.10
2019-03-26T17:11:22.514Z,7.10
2019-03-26T17:13:50.933Z,7.00
2019-03-26T17:16:19.412Z,7.00
2019-03-26T17:18:48.093Z,6.90
2019-03-26T17:21:18.405Z,6.90
2019-03-26T17:23:46.517Z,6.90
2019-03-26T17:26:16.216Z,6.90
2019-03-26T17:28:44.604Z,7.00
2019-03-26T17:31:12.985Z,7.00
2019-03-26T17:33:41.395Z,7.00
2019-03-26T17:36:09.568Z,7.00
2019-03-26T17:38:37.906Z,7.10
2019-03-26T17:41:06.925Z,7.10
2019-03-26T17:43:35.061Z,7.10
2019-03-26T17:46:04.284Z,7.10
2019-03-26T17:48:32.795Z,7.10
2019-03-26T17:51:00.950Z,7.10
2019-03-26T17:53:31.608Z,7.10
2019-03-26T17:56:00.083Z,7.20
2019-03-26T17:58:29.032Z,7.20
2019-03-26T18:00:57.587Z,7.20
2019-03-26T18:03:27.147Z,7.10
2019-03-26T18:05:56.005Z,7.20
2019-03-26T18:08:25.029Z,7.20
2019-03-26T18:10:54.237Z,7.20
2019-03-26T18:13:22.618Z,7.20
2019-03-26T18:15:51.016Z,7.20
2019-03-26T18:18:19.886Z,7.10
2019-03-26T18:20:48.247Z,7.10
2019-03-26T18:23:16.497Z,7.20
2019-03-26T18:25:45.047Z,7.10
2019-03-26T18:28:13.327Z,7.10
2019-03-26T18:30:42.184Z,7.10
2019-03-26T18:33:10.560Z,6.90
2019-03-26T18:35:38.757Z,6.70
2019-03-26T18:38:07.300Z,6.60
2019-03-26T18:40:35.567Z,6.60
2019-03-26T18:43:04.171Z,6.70
2019-03-26T18:45:32.829Z,6.80
2019-03-26T18:48:02.388Z,6.90
2019-03-26T18:50:32.630Z,6.90
2019-03-26T18:53:01.301Z,6.90
2019-03-26T18:55:29.578Z,7.00
2019-03-26T18:57:57.928Z,7.00
2019-03-26T19:00:33.506Z,7.00
2019-03-26T19:03:02.617Z,7.10
2019-03-26T19:05:31.799Z,7.00
2019-03-26T19:08:00.174Z,7.10
2019-03-26T19:10:30.095Z,7.20
2019-03-26T19:12:58.738Z,7.10
2019-03-26T19:15:27.115Z,7.10
2019-03-26T19:17:56.310Z,7.20
2019-03-26T19:20:24.996Z,7.20
2019-03-26T19:22:53.599Z,7.20
2019-03-26T19:25:22.464Z,7.20
2019-03-26T19:27:52.611Z,7.20
2019-03-26T19:30:22.180Z,7.20
2019-03-26T19:32:50.575Z,7.20
2019-03-26T19:35:18.933Z,7.20
2019-03-26T19:37:47.892Z,7.20
2019-03-26T19:40:17.027Z,7.20
2019-03-26T19:42:46.246Z,7.20
2019-03-26T19:45:15.013Z,7.10
2019-03-26T19:47:43.392Z,7.10
2019-03-26T19:50:12.926Z,7.10
2019-03-26T19:52:41.247Z,7.00
2019-03-26T19:55:09.831Z,7.10
2019-03-26T19:57:38.456Z,7.10
2019-03-26T20:00:09.560Z,7.10
2019-03-26T20:02:39.505Z,7.10
2019-03-26T20:05:10.427Z,7.10
2019-03-26T20:07:42.577Z,7.00
2019-03-26T20:10:12.654Z,7.00
2019-03-26T20:12:41.310Z,6.90
2019-03-26T20:15:11.408Z,6.90
2019-03-26T20:17:40.000Z,6.70
2019-03-26T20:20:09.199Z,6.70
2019-03-26T20:22:37.585Z,6.70
2019-03-26T20:25:07.024Z,6.50
2019-03-26T20:27:35.637Z,6.40
2019-03-26T20:30:05.243Z,6.40
2019-03-26T20:32:33.886Z,6.30
2019-03-26T20:35:02.534Z,6.30
2019-03-26T20:37:30.790Z,6.20
2019-03-26T20:39:59.237Z,6.20
2019-03-26T20:42:27.531Z,6.20
2019-03-26T20:44:55.823Z,6.10
2019-03-26T20:47:24.534Z,6.00
2019-03-26T20:49:52.785Z,6.00
2019-03-26T20:52:20.938Z,6.10
2019-03-26T20:54:50.497Z,6.00
2019-03-26T20:57:50.477Z,5.90
2019-03-26T21:00:36.732Z,5.90
2019-03-26T21:03:10.891Z,5.90
2019-03-26T21:05:39.661Z,5.90
2019-03-26T21:08:08.198Z,5.80
2019-03-26T21:10:36.866Z,5.80
2019-03-26T21:13:50.985Z,5.80
2019-03-26T21:16:18.658Z,5.80
2019-03-26T21:18:47.560Z,5.70
2019-03-26T21:21:16.154Z,5.70
2019-03-26T21:23:57.350Z,5.70
2019-03-26T21:26:25.622Z,5.70
2019-03-26T21:28:53.966Z,5.70
2019-03-26T21:31:22.277Z,5.70
2019-03-26T21:33:50.764Z,5.60
2019-03-26T21:36:19.181Z,5.60
2019-03-26T21:38:47.520Z,5.50
2019-03-26T21:41:15.838Z,5.50
2019-03-26T21:43:44.584Z,5.50
2019-03-26T21:46:13.819Z,5.50
2019-03-26T21:48:42.261Z,5.50
2019-03-26T21:51:10.858Z,5.50
2019-03-26T21:53:39.023Z,5.50
2019-03-26T21:56:07.418Z,5.50
2019-03-26T21:58:35.672Z,5.50
2019-03-26T22:01:04.042Z,5.50
2019-03-26T22:03:32.417Z,5.40
2019-03-26T22:06:00.691Z,5.40
2019-03-26T22:08:29.099Z,5.40
2019-03-26T22:10:57.241Z,5.30
2019-03-26T22:13:25.597Z,5.30
2019-03-26T22:15:53.761Z,5.30
2019-03-26T22:18:22.411Z,5.20
2019-03-26T22:20:50.661Z,5.20
2019-03-26T22:23:20.154Z,5.20
2019-03-26T22:25:48.780Z,5.20
2019-03-26T22:28:17.020Z,5.10
2019-03-26T22:30:45.363Z,5.10
2019-03-26T22:33:13.562Z,5.10
2019-03-26T22:35:41.844Z,5.10
2019-03-26T22:38:10.017Z,5.10
2019-03-26T22:40:38.264Z,5.10
2019-03-26T22:43:06.784Z,5.10
2019-03-26T22:45:35.044Z,5.00
2019-03-26T22:48:03.714Z,5.00
2019-03-26T22:50:31.860Z,5.00
2019-03-26T22:53:00.545Z,5.00
2019-03-26T22:55:29.626Z,5.00
2019-03-26T22:57:58.084Z,5.00
2019-03-26T23:00:29.255Z,4.90
2019-03-26T23:02:59.609Z,4.90
2019-03-26T23:05:28.071Z,4.90
2019-03-26T23:07:56.572Z,4.90
2019-03-26T23:10:24.972Z,4.90
2019-03-26T23:12:53.271Z,4.90
2019-03-26T23:15:24.823Z,4.80
2019-03-26T23:17:53.251Z,4.80
2019-03-26T23:20:21.647Z,4.80
2019-03-26T23:22:49.872Z,4.80
2019-03-26T23:25:18.476Z,4.70
2019-03-26T23:27:46.953Z,4.70
2019-03-26T23:30:16.069Z,4.70
2019-03-26T23:32:44.456Z,4.70
2019-03-26T23:35:13.552Z,4.70
2019-03-26T23:37:42.035Z,4.70
2019-03-26T23:40:11.141Z,4.70
2019-03-26T23:42:40.043Z,4.90
2019-03-26T23:45:08.944Z,4.60
2019-03-26T23:47:37.387Z,4.60
2019-03-26T23:50:06.635Z,4.60
2019-03-26T23:52:35.146Z,4.60
2019-03-26T23:55:04.270Z,4.60
2019-03-26T23:57:32.543Z,4.50
